Time;durP1;ratioP1;P1;durP2;ratioP2;P2;SDS_P1;SDS_P2;PMS_P1;PMS_P2;Temp;Humidity;BMP_temperature;BMP_pressure;BME280_temperature;BME280_humidity;BME280_pressure;Samples;Min_cycle;Max_cycle;Signal;HPM_P1;HPM_P2
2022/10/20 00:06:30;;;;;;;17.60;9.80;;;;;;;14.26;80.40;99638.44;31464652;28;20055;-74
2022/10/20 00:21:32;;;;;;;16.90;9.73;;;;;;;14.08;80.97;99618.56;31446715;28;20052;-74
2022/10/20 00:36:34;;;;;;;17.57;10.27;;;;;;;13.98;81.26;99624.00;31455442;28;20056;-73
2022/10/20 00:51:36;;;;;;;21.10;10.13;;;;;;;13.98;82.35;99596.69;31415942;28;20103;-74
2022/10/20 01:06:38;;;;;;;19.37;10.03;;;;;;;13.91;80.75;99591.56;31457788;28;20052;-73
2022/10/20 01:21:48;;;;;;;19.63;10.83;;;;;;;13.73;81.39;99607.88;31427638;28;20453;-73
2022/10/20 01:36:57;;;;;;;28.30;11.00;;;;;;;13.76;80.57;99603.50;31448097;28;20067;-72
2022/10/20 01:51:59;;;;;;;27.10;12.70;;;;;;;13.50;79.63;99600.25;31440839;28;20052;-73
2022/10/20 02:07:17;;;;;;;25.30;10.30;;;;;;;13.26;81.23;99587.13;31428590;28;20076;-73
2022/10/20 02:22:21;;;;;;;21.97;10.77;;;;;;;13.21;81.09;99573.34;31419825;28;20064;-73
2022/10/20 02:37:23;;;;;;;21.57;11.10;;;;;;;13.16;81.69;99593.78;31437692;28;20064;-74
2022/10/20 02:52:24;;;;;;;24.50;10.50;;;;;;;13.21;82.15;99585.00;31441061;28;20110;-75
2022/10/20 03:07:26;;;;;;;23.87;11.87;;;;;;;13.24;81.53;99586.81;31454774;28;20048;-73
2022/10/20 03:22:28;;;;;;;25.73;13.13;;;;;;;13.22;81.32;99566.69;31463807;28;20067;-73
2022/10/20 03:37:35;;;;;;;26.23;12.20;;;;;;;13.18;81.66;99558.66;31436601;28;20064;-72
2022/10/20 03:52:37;;;;;;;25.13;12.50;;;;;;;13.14;82.86;99538.91;31440072;28;20056;-73
2022/10/20 04:07:39;;;;;;;26.30;13.20;;;;;;;13.08;82.04;99510.75;31469384;28;20071;-72
2022/10/20 04:22:41;;;;;;;23.70;11.97;;;;;;;13.16;81.46;99503.84;31468385;28;20082;-74
2022/10/20 04:37:42;;;;;;;23.90;11.07;;;;;;;13.18;81.53;99501.44;31480643;28;20060;-74
2022/10/20 04:52:44;;;;;;;75.00;33.40;;;;;;;13.14;80.34;99511.66;31465135;28;20056;-72
2022/10/20 05:07:46;;;;;;;21.07;10.60;;;;;;;13.20;78.43;99520.81;31436009;28;20056;-74
2022/10/20 05:22:48;;;;;;;20.30;9.87;;;;;;;13.14;78.43;99536.19;31463726;28;20397;-74
2022/10/20 05:37:50;;;;;;;16.87;9.87;;;;;;;13.19;79.11;99548.50;31444177;28;20074;-73
2022/10/20 05:52:51;;;;;;;13.57;7.73;;;;;;;13.54;76.16;99552.53;31433094;28;20059;-73
2022/10/20 06:07:53;;;;;;;14.37;8.67;;;;;;;13.38;76.16;99558.25;31434677;28;20048;-73
2022/10/20 06:22:55;;;;;;;14.17;7.93;;;;;;;13.30;74.30;99568.69;31426143;28;20058;-74
2022/10/20 06:37:57;;;;;;;12.77;6.33;;;;;;;13.08;74.34;99564.47;31427096;28;20061;-73
2022/10/20 06:52:59;;;;;;;2.10;1.70;;;;;;;12.88;72.91;99592.84;31444546;28;20087;-74
2022/10/20 07:08:01;;;;;;;2.53;1.50;;;;;;;12.67;71.34;99587.41;31445395;28;20063;-73
2022/10/20 07:23:02;;;;;;;1.00;0.93;;;;;;;12.36;70.29;99599.00;31471056;28;20051;-74
2022/10/20 07:38:04;;;;;;;1.47;0.87;;;;;;;12.04;71.91;99612.94;31463890;28;20918;-74
2022/10/20 07:53:06;;;;;;;1.97;1.00;;;;;;;11.66;75.89;99613.75;31475912;28;20044;-74
2022/10/20 08:08:10;;;;;;;1.17;0.73;;;;;;;11.38;76.38;99622.78;31436965;28;20524;-75
2022/10/20 08:23:14;;;;;;;1.13;0.80;;;;;;;11.38;73.14;99636.38;31467474;28;20051;-74
2022/10/20 08:38:17;;;;;;;1.90;0.93;;;;;;;11.39;69.70;99651.47;31450385;28;20056;-75
2022/10/20 08:53:22;;;;;;;1.43;0.70;;;;;;;11.76;67.38;99642.59;31451723;28;20114;-73
2022/10/20 09:08:28;;;;;;;1.77;1.10;;;;;;;11.42;69.87;99656.81;31448325;28;20060;-74
2022/10/20 09:23:51;;;;;;;1.00;0.80;;;;;;;11.07;68.97;99660.59;31417186;28;20049;-74
2022/10/20 09:38:55;;;;;;;1.03;0.93;;;;;;;11.13;69.09;99686.75;31458719;28;20442;-75
2022/10/20 09:54:06;;;;;;;1.30;0.97;;;;;;;10.95;68.53;99686.50;31444203;28;20563;-75
2022/10/20 10:09:30;;;;;;;1.70;0.73;;;;;;;11.02;70.51;99710.75;31466834;28;20093;-75
2022/10/20 10:24:39;;;;;;;0.77;0.60;;;;;;;10.75;73.32;99707.63;31446701;28;20057;-74
2022/10/20 10:39:44;;;;;;;0.63;0.63;;;;;;;10.51;71.23;99728.78;31438445;28;20052;-76
2022/10/20 10:55:01;;;;;;;0.70;0.70;;;;;;;10.53;70.14;99726.41;31447029;28;20057;-75
2022/10/20 11:10:18;;;;;;;1.03;0.90;;;;;;;10.58;69.81;99740.25;31437842;28;20057;-76
2022/10/20 11:25:32;;;;;;;1.47;1.17;;;;;;;10.38;69.92;99747.72;31450961;28;20052;-75
2022/10/20 11:40:44;;;;;;;2.20;0.90;;;;;;;10.03;67.58;99753.94;31435063;28;21000;-74
2022/10/20 11:56:15;;;;;;;3.33;1.10;;;;;;;10.25;68.56;99771.28;31462927;28;20049;-75
2022/10/20 12:12:04;;;;;;;2.57;1.53;;;;;;;10.19;69.29;99800.84;31474976;28;20481;-74
2022/10/20 12:27:19;;;;;;;1.13;0.90;;;;;;;9.79;71.62;99821.88;31497871;28;20131;-75
2022/10/20 12:42:35;;;;;;;1.63;1.33;;;;;;;9.49;70.85;99835.63;31464044;28;20052;-75
2022/10/20 12:57:42;;;;;;;1.30;1.20;;;;;;;9.42;71.00;99847.41;31481306;28;20417;-73
2022/10/20 13:12:44;;;;;;;1.60;1.20;;;;;;;9.40;72.08;99884.22;31451615;28;20103;-74
2022/10/20 13:27:48;;;;;;;1.17;1.07;;;;;;;9.27;70.65;99908.41;31442030;28;20406;-73
2022/10/20 13:43:06;;;;;;;1.10;1.00;;;;;;;8.96;70.89;99915.91;31457397;28;20110;-75
2022/10/20 13:58:30;;;;;;;1.90;1.50;;;;;;;8.67;73.15;99923.69;31449606;28;20111;-73
2022/10/20 14:13:35;;;;;;;1.95;1.38;;;;;;;8.54;75.31;99931.59;31429558;28;20131;-74
2022/10/20 14:28:39;;;;;;;4.57;2.10;;;;;;;8.65;77.58;99936.09;31444695;28;20048;-74
2022/10/20 14:43:47;;;;;;;3.33;1.97;;;;;;;8.63;79.14;99951.97;31428899;28;20049;-75
2022/10/20 14:59:00;;;;;;;5.33;2.77;;;;;;;8.78;81.71;99964.13;31466982;28;20060;-75
2022/10/20 15:14:02;;;;;;;5.60;3.47;;;;;;;9.10;81.08;99991.50;31477644;28;20106;-75
2022/10/20 15:29:06;;;;;;;4.57;2.73;;;;;;;9.15;82.63;100012.69;31469661;28;20053;-76
2022/10/20 15:44:20;;;;;;;5.23;3.27;;;;;;;9.37;82.44;100017.78;31456683;28;20132;-76
2022/10/20 15:59:31;;;;;;;5.17;3.13;;;;;;;9.39;81.35;100047.94;31447586;28;20052;-77
2022/10/20 16:14:36;;;;;;;5.13;2.97;;;;;;;9.48;81.42;100073.31;31434447;28;20052;-76
2022/10/20 16:29:40;;;;;;;4.13;2.70;;;;;;;9.44;81.90;100096.25;31426689;28;20061;-77
2022/10/20 16:44:48;;;;;;;7.73;5.30;;;;;;;9.49;81.02;100109.31;31463344;28;20053;-74
2022/10/20 16:59:53;;;;;;;3.40;2.37;;;;;;;9.43;80.93;100124.53;31424165;28;20053;-74
2022/10/20 17:14:55;;;;;;;3.40;2.20;;;;;;;9.57;80.23;100135.91;31439688;28;20048;-74
2022/10/20 17:29:59;;;;;;;4.10;2.47;;;;;;;9.42;82.25;100160.91;31443168;28;20055;-75
2022/10/20 17:45:01;;;;;;;3.13;2.10;;;;;;;9.68;80.07;100170.22;31446228;28;20432;-75
2022/10/20 18:00:06;;;;;;;4.33;2.23;;;;;;;9.85;78.14;100178.06;31448516;28;20052;-74
2022/10/20 18:15:15;;;;;;;4.47;2.67;;;;;;;9.72;78.38;100179.03;31447210;28;20040;-74
2022/10/20 18:30:17;;;;;;;3.57;2.20;;;;;;;9.70;78.42;100184.88;31455488;28;20056;-74
2022/10/20 18:45:20;;;;;;;2.93;2.37;;;;;;;10.03;75.39;100209.56;31422497;28;20057;-74
2022/10/20 19:00:28;;;;;;;3.17;2.17;;;;;;;10.12;77.06;100224.16;31424276;28;20056;-74
2022/10/20 19:15:31;;;;;;;3.20;2.13;;;;;;;10.06;77.31;100246.72;31457428;28;20052;-73
2022/10/20 19:30:37;;;;;;;5.40;2.93;;;;;;;10.08;77.12;100277.69;31433317;28;20110;-73
2022/10/20 19:45:40;;;;;;;3.83;2.40;;;;;;;10.24;77.00;100309.63;31458343;28;20057;-73
2022/10/20 20:00:55;;;;;;;3.07;2.00;;;;;;;10.38;77.68;100328.44;31475008;28;20052;-73
2022/10/20 20:16:06;;;;;;;3.17;2.20;;;;;;;10.40;77.01;100336.91;31433968;28;20041;-75
2022/10/20 20:31:12;;;;;;;3.17;2.47;;;;;;;10.50;76.85;100354.97;31425549;28;20045;-73
2022/10/20 20:46:17;;;;;;;3.67;2.23;;;;;;;10.50;76.69;100368.56;31407166;28;20114;-74
2022/10/20 21:01:22;;;;;;;3.67;2.13;;;;;;;10.57;76.24;100384.75;31439972;28;20056;-73
2022/10/20 21:16:35;;;;;;;10.40;3.07;;;;;;;10.29;78.88;100390.56;31416190;28;20494;-74
2022/10/20 21:31:39;;;;;;;4.97;3.00;;;;;;;10.31;79.86;100399.06;31460385;28;20135;-74
2022/10/20 21:46:49;;;;;;;4.73;3.37;;;;;;;10.37;78.50;100418.41;31444078;28;20457;-74
2022/10/20 22:02:00;;;;;;;4.83;3.30;;;;;;;10.70;75.48;100435.75;31455271;28;20044;-73
2022/10/20 22:17:05;;;;;;;6.23;3.47;;;;;;;10.70;77.53;100465.59;31419691;28;20053;-72
2022/10/20 22:32:10;;;;;;;4.93;2.90;;;;;;;10.93;76.22;100479.22;31426182;28;20051;-72
2022/10/20 22:47:15;;;;;;;6.27;4.00;;;;;;;11.00;75.86;100492.72;31431981;28;20041;-73
2022/10/20 23:02:18;;;;;;;6.83;4.27;;;;;;;11.02;76.33;100506.66;31409154;28;20056;-73
2022/10/20 23:17:20;;;;;;;5.37;3.90;;;;;;;11.03;75.31;100513.63;31449426;28;20057;-73
2022/10/20 23:32:26;;;;;;;8.83;3.03;;;;;;;11.14;75.99;100535.97;31437943;28;20053;-73
2022/10/20 23:47:31;;;;;;;5.10;3.37;;;;;;;11.10;74.75;100551.53;31448858;28;20056;-74
